Akron Canton Regional Airport
KCAK : rendu visible

Aérodrome :











RETROUVEZ-NOUS SUR...

 
LOGIN :

S'inscrire | Disclaimer

   EN    FR    IT 

 









Légende :    VFR   VFR Marginal   IFR   IFR Intensif   IFR Très Intensif
Visi : 
Plafond : 
>= 8 km
>= 3000ft
5 à 8 km
1000 à 3000 ft
1500m à 5 km
500 à 1000 ft
800 à 1500m
200 à 500 ft
< 800m
< 200 ft
Symboles :   Orages  Brouillard  Fortes neiges  Fortes précipitations  Vent > 20 kt






- Altitude de l'aérodrome : 1228 ft
- Code IATA : CAK


KCAK - Akron Canton Regional

DERNIER METAR :
  • 100808Z 26012G20KT 8SM FEW023 FEW027 SCT042 10/07 A2969 RMK AO2 T01000067

METARs EXPIRÉS :
  • 100751Z 26013G22KT 8SM BKN025 BKN050 10/07 A2968 RMK AO2 SLP054 T01000067
  • 100651Z 27016G24KT 10SM FEW018 SCT027 OVC032 11/08 A2966 RMK AO2 PK WND 27027/0623 SLP045 T01110078
  • 100551Z 26015G22KT 10SM OVC025 12/09 A2963 RMK AO2 SLP033 60031 T01220089 10133 20117 53019
  • 100530Z 26013G22KT 10SM OVC025 12/09 A2962 RMK AO2 T01220094

TAF KCAK
Valide du 10 à 06h jusqu'au 11 à 06h UTC


100544Z 1006/1106 26012G22KT P6SM VCSH SCT015 OVC025
FM101000 27014G24KT P6SM OVC015
FM101800 27010KT P6SM OVC025
FM102300 27008KT P6SM OVC035
FM110400 27007KT P6SM BKN080



MET'MAP, la Météo Aéronautique d'un coup d'oeil ! - Copyright ORBIFLY Décembre 2007 - Disclaimer

ORBIFLY MET'MAP TEAM :

Programmation & Développement : Alexandra Zaïnal
Sur une idée originale de : Baudouin d'Aumeries
Assistance à la programmation : Marc-Olivier Méhu
Soutien technique & logistique : Manuel Goepfert

Contact : metmap@orbifly.com




SOURCES & CREDITS :

   NOAA       Earth
Advisory